sensor_id;sensor_type;location;lat;lon;timestamp;P1;durP1;ratioP1;P2;durP2;ratioP2
10557;SDS011;5327;47.238;-2.304;2022-08-19T00:00:06;9.47;;;5.67;;
10557;SDS011;5327;47.238;-2.304;2022-08-19T00:02:33;12.43;;;6.20;;
10557;SDS011;5327;47.238;-2.304;2022-08-19T00:04:59;11.20;;;5.47;;
10557;SDS011;5327;47.238;-2.304;2022-08-19T00:07:25;8.77;;;5.17;;
10557;SDS011;5327;47.238;-2.304;2022-08-19T00:09:51;8.73;;;5.03;;
10557;SDS011;5327;47.238;-2.304;2022-08-19T00:12:17;23.83;;;6.47;;
10557;SDS011;5327;47.238;-2.304;2022-08-19T00:14:43;12.80;;;5.17;;
10557;SDS011;5327;47.238;-2.304;2022-08-19T00:17:09;8.37;;;4.53;;
10557;SDS011;5327;47.238;-2.304;2022-08-19T00:19:36;12.60;;;4.60;;
10557;SDS011;5327;47.238;-2.304;2022-08-19T00:22:02;9.70;;;3.03;;
10557;SDS011;5327;47.238;-2.304;2022-08-19T00:24:30;5.00;;;2.00;;
10557;SDS011;5327;47.238;-2.304;2022-08-19T00:26:56;5.13;;;2.57;;
10557;SDS011;5327;47.238;-2.304;2022-08-19T00:29:23;9.23;;;2.93;;
10557;SDS011;5327;47.238;-2.304;2022-08-19T00:31:50;3.30;;;3.00;;
10557;SDS011;5327;47.238;-2.304;2022-08-19T00:34:19;8.03;;;3.23;;
10557;SDS011;5327;47.238;-2.304;2022-08-19T00:36:45;9.47;;;3.70;;
10557;SDS011;5327;47.238;-2.304;2022-08-19T00:39:11;10.43;;;3.60;;
10557;SDS011;5327;47.238;-2.304;2022-08-19T00:41:37;12.90;;;4.10;;
10557;SDS011;5327;47.238;-2.304;2022-08-19T00:44:05;6.33;;;3.33;;
10557;SDS011;5327;47.238;-2.304;2022-08-19T00:46:32;5.97;;;3.00;;
10557;SDS011;5327;47.238;-2.304;2022-08-19T00:49:00;6.00;;;3.60;;
10557;SDS011;5327;47.238;-2.304;2022-08-19T00:51:28;6.40;;;3.27;;
10557;SDS011;5327;47.238;-2.304;2022-08-19T00:53:57;7.80;;;3.87;;
10557;SDS011;5327;47.238;-2.304;2022-08-19T00:56:24;5.37;;;3.27;;
10557;SDS011;5327;47.238;-2.304;2022-08-19T00:58:52;9.40;;;3.77;;
10557;SDS011;5327;47.238;-2.304;2022-08-19T01:01:19;10.27;;;3.50;;
10557;SDS011;5327;47.238;-2.304;2022-08-19T01:03:45;10.10;;;3.10;;
10557;SDS011;5327;47.238;-2.304;2022-08-19T01:06:11;8.80;;;3.40;;
10557;SDS011;5327;47.238;-2.304;2022-08-19T01:08:38;2.40;;;2.03;;
10557;SDS011;5327;47.238;-2.304;2022-08-19T01:11:04;6.80;;;2.60;;
10557;SDS011;5327;47.238;-2.304;2022-08-19T01:13:30;7.27;;;2.50;;
10557;SDS011;5327;47.238;-2.304;2022-08-19T01:16:08;4.63;;;2.40;;
10557;SDS011;5327;47.238;-2.304;2022-08-19T01:18:35;4.57;;;2.43;;
10557;SDS011;5327;47.238;-2.304;2022-08-19T01:21:07;4.53;;;2.70;;
10557;SDS011;5327;47.238;-2.304;2022-08-19T01:23:34;4.87;;;2.60;;
10557;SDS011;5327;47.238;-2.304;2022-08-19T01:26:19;7.17;;;2.20;;
10557;SDS011;5327;47.238;-2.304;2022-08-19T01:28:47;4.90;;;2.60;;
10557;SDS011;5327;47.238;-2.304;2022-08-19T01:31:18;2.40;;;2.20;;
10557;SDS011;5327;47.238;-2.304;2022-08-19T01:33:46;8.13;;;2.60;;
10557;SDS011;5327;47.238;-2.304;2022-08-19T01:36:14;6.03;;;2.77;;
10557;SDS011;5327;47.238;-2.304;2022-08-19T01:38:43;8.20;;;3.90;;
10557;SDS011;5327;47.238;-2.304;2022-08-19T01:41:12;3.00;;;1.93;;
10557;SDS011;5327;47.238;-2.304;2022-08-19T01:43:38;5.80;;;2.03;;
10557;SDS011;5327;47.238;-2.304;2022-08-19T01:46:04;4.93;;;2.03;;
10557;SDS011;5327;47.238;-2.304;2022-08-19T01:48:35;5.20;;;2.40;;
10557;SDS011;5327;47.238;-2.304;2022-08-19T01:51:02;3.53;;;1.97;;
10557;SDS011;5327;47.238;-2.304;2022-08-19T01:53:28;3.27;;;2.40;;
10557;SDS011;5327;47.238;-2.304;2022-08-19T01:55:55;5.53;;;2.30;;
10557;SDS011;5327;47.238;-2.304;2022-08-19T01:58:22;7.40;;;2.90;;
10557;SDS011;5327;47.238;-2.304;2022-08-19T02:00:50;3.43;;;1.83;;
10557;SDS011;5327;47.238;-2.304;2022-08-19T02:03:17;6.37;;;2.23;;
10557;SDS011;5327;47.238;-2.304;2022-08-19T02:05:43;6.83;;;3.20;;
10557;SDS011;5327;47.238;-2.304;2022-08-19T02:08:10;5.07;;;2.20;;
10557;SDS011;5327;47.238;-2.304;2022-08-19T02:10:41;5.73;;;2.10;;
10557;SDS011;5327;47.238;-2.304;2022-08-19T02:13:07;4.37;;;2.47;;
10557;SDS011;5327;47.238;-2.304;2022-08-19T02:15:33;2.73;;;1.67;;
10557;SDS011;5327;47.238;-2.304;2022-08-19T02:17:59;3.60;;;1.97;;
10557;SDS011;5327;47.238;-2.304;2022-08-19T02:20:25;3.10;;;1.70;;
10557;SDS011;5327;47.238;-2.304;2022-08-19T02:22:51;2.37;;;1.87;;
10557;SDS011;5327;47.238;-2.304;2022-08-19T02:25:17;7.80;;;2.07;;
10557;SDS011;5327;47.238;-2.304;2022-08-19T02:27:43;3.60;;;2.27;;
10557;SDS011;5327;47.238;-2.304;2022-08-19T02:30:14;4.10;;;2.10;;
10557;SDS011;5327;47.238;-2.304;2022-08-19T02:32:41;3.50;;;2.50;;
10557;SDS011;5327;47.238;-2.304;2022-08-19T02:35:07;7.50;;;2.83;;
10557;SDS011;5327;47.238;-2.304;2022-08-19T02:37:33;5.07;;;3.30;;
10557;SDS011;5327;47.238;-2.304;2022-08-19T02:40:18;5.07;;;3.00;;
10557;SDS011;5327;47.238;-2.304;2022-08-19T02:42:44;4.97;;;2.87;;
10557;SDS011;5327;47.238;-2.304;2022-08-19T02:45:14;3.50;;;2.40;;
10557;SDS011;5327;47.238;-2.304;2022-08-19T02:47:40;5.53;;;2.33;;
10557;SDS011;5327;47.238;-2.304;2022-08-19T02:50:06;4.77;;;2.80;;
10557;SDS011;5327;47.238;-2.304;2022-08-19T02:52:33;5.07;;;2.57;;
10557;SDS011;5327;47.238;-2.304;2022-08-19T02:54:59;5.77;;;2.77;;
10557;SDS011;5327;47.238;-2.304;2022-08-19T02:57:26;5.27;;;2.77;;
10557;SDS011;5327;47.238;-2.304;2022-08-19T02:59:52;7.77;;;2.83;;
10557;SDS011;5327;47.238;-2.304;2022-08-19T03:02:18;6.23;;;2.37;;
10557;SDS011;5327;47.238;-2.304;2022-08-19T03:04:44;7.70;;;2.27;;
10557;SDS011;5327;47.238;-2.304;2022-08-19T03:07:14;4.20;;;2.07;;
10557;SDS011;5327;47.238;-2.304;2022-08-19T03:09:40;3.07;;;2.10;;
10557;SDS011;5327;47.238;-2.304;2022-08-19T03:12:07;4.77;;;2.03;;
10557;SDS011;5327;47.238;-2.304;2022-08-19T03:14:33;3.30;;;2.10;;
10557;SDS011;5327;47.238;-2.304;2022-08-19T03:17:00;4.50;;;1.97;;
10557;SDS011;5327;47.238;-2.304;2022-08-19T03:19:26;5.03;;;2.30;;
10557;SDS011;5327;47.238;-2.304;2022-08-19T03:21:53;6.77;;;3.00;;
10557;SDS011;5327;47.238;-2.304;2022-08-19T03:24:20;6.73;;;2.83;;
10557;SDS011;5327;47.238;-2.304;2022-08-19T03:26:50;6.07;;;2.10;;
10557;SDS011;5327;47.238;-2.304;2022-08-19T03:29:17;3.97;;;1.93;;
10557;SDS011;5327;47.238;-2.304;2022-08-19T03:31:44;4.80;;;1.90;;
10557;SDS011;5327;47.238;-2.304;2022-08-19T03:34:12;3.90;;;1.50;;
10557;SDS011;5327;47.238;-2.304;2022-08-19T03:36:38;16.80;;;2.40;;
10557;SDS011;5327;47.238;-2.304;2022-08-19T03:39:05;5.40;;;1.90;;
10557;SDS011;5327;47.238;-2.304;2022-08-19T03:41:39;7.00;;;1.70;;
10557;SDS011;5327;47.238;-2.304;2022-08-19T03:44:05;7.43;;;1.80;;
10557;SDS011;5327;47.238;-2.304;2022-08-19T03:46:32;6.03;;;1.70;;
10557;SDS011;5327;47.238;-2.304;2022-08-19T03:48:59;3.70;;;1.13;;
10557;SDS011;5327;47.238;-2.304;2022-08-19T03:51:31;3.97;;;1.17;;
10557;SDS011;5327;47.238;-2.304;2022-08-19T03:53:58;2.77;;;0.90;;
10557;SDS011;5327;47.238;-2.304;2022-08-19T03:56:24;1.10;;;1.00;;
10557;SDS011;5327;47.238;-2.304;2022-08-19T03:58:50;5.13;;;1.33;;
10557;SDS011;5327;47.238;-2.304;2022-08-19T04:01:18;6.93;;;1.00;;
10557;SDS011;5327;47.238;-2.304;2022-08-19T04:03:45;4.90;;;1.20;;
10557;SDS011;5327;47.238;-2.304;2022-08-19T04:06:15;3.83;;;1.00;;
10557;SDS011;5327;47.238;-2.304;2022-08-19T04:08:42;5.20;;;1.10;;
10557;SDS011;5327;47.238;-2.304;2022-08-19T04:11:12;2.67;;;0.80;;
10557;SDS011;5327;47.238;-2.304;2022-08-19T04:13:39;5.33;;;0.93;;
10557;SDS011;5327;47.238;-2.304;2022-08-19T04:16:05;8.07;;;1.17;;
10557;SDS011;5327;47.238;-2.304;2022-08-19T04:18:35;5.73;;;1.17;;
10557;SDS011;5327;47.238;-2.304;2022-08-19T04:21:01;1.57;;;1.40;;
10557;SDS011;5327;47.238;-2.304;2022-08-19T04:23:27;4.47;;;1.07;;
10557;SDS011;5327;47.238;-2.304;2022-08-19T04:25:54;6.60;;;1.10;;
10557;SDS011;5327;47.238;-2.304;2022-08-19T04:28:20;6.00;;;1.23;;
10557;SDS011;5327;47.238;-2.304;2022-08-19T04:30:50;4.20;;;1.20;;
10557;SDS011;5327;47.238;-2.304;2022-08-19T04:33:20;2.80;;;1.13;;
10557;SDS011;5327;47.238;-2.304;2022-08-19T04:35:48;2.50;;;1.13;;
10557;SDS011;5327;47.238;-2.304;2022-08-19T04:38:15;2.73;;;1.23;;
10557;SDS011;5327;47.238;-2.304;2022-08-19T04:40:46;1.37;;;1.27;;
10557;SDS011;5327;47.238;-2.304;2022-08-19T04:43:31;2.20;;;1.33;;
10557;SDS011;5327;47.238;-2.304;2022-08-19T04:45:57;3.20;;;1.50;;
10557;SDS011;5327;47.238;-2.304;2022-08-19T04:48:23;5.50;;;3.17;;
10557;SDS011;5327;47.238;-2.304;2022-08-19T04:50:53;1.23;;;1.00;;
10557;SDS011;5327;47.238;-2.304;2022-08-19T04:53:29;2.73;;;1.30;;
10557;SDS011;5327;47.238;-2.304;2022-08-19T04:55:56;3.20;;;1.90;;
10557;SDS011;5327;47.238;-2.304;2022-08-19T04:58:24;2.80;;;2.47;;
10557;SDS011;5327;47.238;-2.304;2022-08-19T05:00:50;3.27;;;1.90;;
10557;SDS011;5327;47.238;-2.304;2022-08-19T05:03:16;3.23;;;1.33;;
10557;SDS011;5327;47.238;-2.304;2022-08-19T05:05:45;5.20;;;2.07;;
10557;SDS011;5327;47.238;-2.304;2022-08-19T05:08:14;2.50;;;1.70;;
10557;SDS011;5327;47.238;-2.304;2022-08-19T05:10:44;2.13;;;1.37;;
10557;SDS011;5327;47.238;-2.304;2022-08-19T05:13:10;2.33;;;1.63;;
10557;SDS011;5327;47.238;-2.304;2022-08-19T05:15:36;2.43;;;1.30;;
10557;SDS011;5327;47.238;-2.304;2022-08-19T05:18:02;4.70;;;1.50;;
10557;SDS011;5327;47.238;-2.304;2022-08-19T05:20:47;4.57;;;2.37;;
10557;SDS011;5327;47.238;-2.304;2022-08-19T05:23:32;4.37;;;2.33;;
10557;SDS011;5327;47.238;-2.304;2022-08-19T05:25:58;4.23;;;1.50;;
10557;SDS011;5327;47.238;-2.304;2022-08-19T05:28:24;7.10;;;2.10;;
10557;SDS011;5327;47.238;-2.304;2022-08-19T05:30:50;5.40;;;2.23;;
10557;SDS011;5327;47.238;-2.304;2022-08-19T05:33:16;7.23;;;2.03;;
10557;SDS011;5327;47.238;-2.304;2022-08-19T05:35:42;4.27;;;2.00;;
10557;SDS011;5327;47.238;-2.304;2022-08-19T05:38:09;7.30;;;2.63;;
10557;SDS011;5327;47.238;-2.304;2022-08-19T05:40:36;5.67;;;2.57;;
10557;SDS011;5327;47.238;-2.304;2022-08-19T05:43:03;6.57;;;2.57;;
10557;SDS011;5327;47.238;-2.304;2022-08-19T05:45:29;5.07;;;2.53;;
10557;SDS011;5327;47.238;-2.304;2022-08-19T05:47:55;6.63;;;3.30;;
10557;SDS011;5327;47.238;-2.304;2022-08-19T05:50:21;10.57;;;2.80;;
10557;SDS011;5327;47.238;-2.304;2022-08-19T05:52:47;6.77;;;3.40;;
10557;SDS011;5327;47.238;-2.304;2022-08-19T05:55:13;6.57;;;3.17;;
10557;SDS011;5327;47.238;-2.304;2022-08-19T05:57:39;7.73;;;2.60;;
10557;SDS011;5327;47.238;-2.304;2022-08-19T06:00:05;10.17;;;3.40;;
10557;SDS011;5327;47.238;-2.304;2022-08-19T06:02:36;4.83;;;2.80;;
10557;SDS011;5327;47.238;-2.304;2022-08-19T06:05:03;7.67;;;3.00;;
10557;SDS011;5327;47.238;-2.304;2022-08-19T06:07:33;6.00;;;2.97;;
10557;SDS011;5327;47.238;-2.304;2022-08-19T06:09:59;13.43;;;4.17;;
10557;SDS011;5327;47.238;-2.304;2022-08-19T06:12:25;6.93;;;2.77;;
10557;SDS011;5327;47.238;-2.304;2022-08-19T06:14:53;10.53;;;3.50;;
10557;SDS011;5327;47.238;-2.304;2022-08-19T06:17:20;8.47;;;3.23;;
10557;SDS011;5327;47.238;-2.304;2022-08-19T06:19:49;7.00;;;3.30;;
10557;SDS011;5327;47.238;-2.304;2022-08-19T06:22:15;10.17;;;3.80;;
10557;SDS011;5327;47.238;-2.304;2022-08-19T06:24:42;10.20;;;3.47;;
10557;SDS011;5327;47.238;-2.304;2022-08-19T06:27:08;9.90;;;3.70;;
10557;SDS011;5327;47.238;-2.304;2022-08-19T06:29:34;8.27;;;3.27;;
10557;SDS011;5327;47.238;-2.304;2022-08-19T06:32:01;8.17;;;3.50;;
10557;SDS011;5327;47.238;-2.304;2022-08-19T06:34:28;9.77;;;3.30;;
10557;SDS011;5327;47.238;-2.304;2022-08-19T06:36:54;8.50;;;2.97;;
10557;SDS011;5327;47.238;-2.304;2022-08-19T06:39:25;7.87;;;3.47;;
10557;SDS011;5327;47.238;-2.304;2022-08-19T06:41:53;4.43;;;2.70;;
10557;SDS011;5327;47.238;-2.304;2022-08-19T06:44:21;6.10;;;3.23;;
10557;SDS011;5327;47.238;-2.304;2022-08-19T06:46:47;10.30;;;3.50;;
10557;SDS011;5327;47.238;-2.304;2022-08-19T06:49:14;9.20;;;2.43;;
10557;SDS011;5327;47.238;-2.304;2022-08-19T06:51:44;20.20;;;3.60;;
10557;SDS011;5327;47.238;-2.304;2022-08-19T06:54:14;7.87;;;2.63;;
10557;SDS011;5327;47.238;-2.304;2022-08-19T06:56:41;6.57;;;3.03;;
10557;SDS011;5327;47.238;-2.304;2022-08-19T06:59:09;4.93;;;2.77;;
10557;SDS011;5327;47.238;-2.304;2022-08-19T07:01:36;9.37;;;3.27;;
10557;SDS011;5327;47.238;-2.304;2022-08-19T07:04:03;7.63;;;3.47;;
10557;SDS011;5327;47.238;-2.304;2022-08-19T07:06:29;12.73;;;3.23;;
10557;SDS011;5327;47.238;-2.304;2022-08-19T07:08:56;9.57;;;3.30;;
10557;SDS011;5327;47.238;-2.304;2022-08-19T07:11:23;10.77;;;3.87;;
10557;SDS011;5327;47.238;-2.304;2022-08-19T07:13:49;7.07;;;3.00;;
10557;SDS011;5327;47.238;-2.304;2022-08-19T07:16:17;7.10;;;3.17;;
10557;SDS011;5327;47.238;-2.304;2022-08-19T07:18:47;8.10;;;3.00;;
10557;SDS011;5327;47.238;-2.304;2022-08-19T07:21:18;11.33;;;3.67;;
10557;SDS011;5327;47.238;-2.304;2022-08-19T07:23:44;11.10;;;3.53;;
10557;SDS011;5327;47.238;-2.304;2022-08-19T07:28:40;9.20;;;3.73;;
10557;SDS011;5327;47.238;-2.304;2022-08-19T07:31:08;10.63;;;4.20;;
10557;SDS011;5327;47.238;-2.304;2022-08-19T07:33:35;12.50;;;4.17;;
10557;SDS011;5327;47.238;-2.304;2022-08-19T07:36:03;11.73;;;3.77;;
10557;SDS011;5327;47.238;-2.304;2022-08-19T07:38:29;8.90;;;3.60;;
10557;SDS011;5327;47.238;-2.304;2022-08-19T07:40:55;7.07;;;4.10;;
10557;SDS011;5327;47.238;-2.304;2022-08-19T07:43:21;12.07;;;3.80;;
10557;SDS011;5327;47.238;-2.304;2022-08-19T07:45:50;14.37;;;4.63;;
10557;SDS011;5327;47.238;-2.304;2022-08-19T07:48:16;8.90;;;3.53;;
10557;SDS011;5327;47.238;-2.304;2022-08-19T07:50:42;8.17;;;3.53;;
10557;SDS011;5327;47.238;-2.304;2022-08-19T07:53:08;8.63;;;3.90;;
10557;SDS011;5327;47.238;-2.304;2022-08-19T07:55:34;6.80;;;3.23;;
10557;SDS011;5327;47.238;-2.304;2022-08-19T07:58:00;14.20;;;4.20;;
10557;SDS011;5327;47.238;-2.304;2022-08-19T08:00:26;10.27;;;3.77;;
10557;SDS011;5327;47.238;-2.304;2022-08-19T08:02:52;9.50;;;4.07;;
10557;SDS011;5327;47.238;-2.304;2022-08-19T08:05:19;8.43;;;4.10;;
10557;SDS011;5327;47.238;-2.304;2022-08-19T08:08:03;10.27;;;4.03;;
10557;SDS011;5327;47.238;-2.304;2022-08-19T08:10:48;8.87;;;3.77;;
10557;SDS011;5327;47.238;-2.304;2022-08-19T08:13:14;12.00;;;4.20;;
10557;SDS011;5327;47.238;-2.304;2022-08-19T08:15:41;9.83;;;4.47;;
10557;SDS011;5327;47.238;-2.304;2022-08-19T08:18:10;14.50;;;4.77;;
10557;SDS011;5327;47.238;-2.304;2022-08-19T08:20:36;19.50;;;4.40;;
10557;SDS011;5327;47.238;-2.304;2022-08-19T08:23:02;13.17;;;4.80;;
10557;SDS011;5327;47.238;-2.304;2022-08-19T08:25:46;9.87;;;3.77;;
10557;SDS011;5327;47.238;-2.304;2022-08-19T08:28:14;12.53;;;4.60;;
10557;SDS011;5327;47.238;-2.304;2022-08-19T08:30:40;11.70;;;4.40;;
10557;SDS011;5327;47.238;-2.304;2022-08-19T08:33:08;8.57;;;4.10;;
10557;SDS011;5327;47.238;-2.304;2022-08-19T08:35:35;14.40;;;4.37;;
10557;SDS011;5327;47.238;-2.304;2022-08-19T08:38:02;12.20;;;4.30;;
10557;SDS011;5327;47.238;-2.304;2022-08-19T08:40:33;11.50;;;4.00;;
10557;SDS011;5327;47.238;-2.304;2022-08-19T08:43:06;8.77;;;3.90;;
10557;SDS011;5327;47.238;-2.304;2022-08-19T08:45:33;9.73;;;4.10;;
10557;SDS011;5327;47.238;-2.304;2022-08-19T08:48:02;8.03;;;4.23;;
10557;SDS011;5327;47.238;-2.304;2022-08-19T08:50:38;9.70;;;3.70;;
10557;SDS011;5327;47.238;-2.304;2022-08-19T08:53:05;10.70;;;3.87;;
10557;SDS011;5327;47.238;-2.304;2022-08-19T08:55:32;9.00;;;4.10;;
10557;SDS011;5327;47.238;-2.304;2022-08-19T08:58:03;8.43;;;4.47;;
10557;SDS011;5327;47.238;-2.304;2022-08-19T09:00:34;10.27;;;3.83;;
10557;SDS011;5327;47.238;-2.304;2022-08-19T09:03:01;6.63;;;4.17;;
10557;SDS011;5327;47.238;-2.304;2022-08-19T09:05:52;4.83;;;4.07;;
10557;SDS011;5327;47.238;-2.304;2022-08-19T09:08:26;10.63;;;4.50;;
10557;SDS011;5327;47.238;-2.304;2022-08-19T09:10:55;9.93;;;4.03;;
10557;SDS011;5327;47.238;-2.304;2022-08-19T09:15:54;8.53;;;3.87;;
10557;SDS011;5327;47.238;-2.304;2022-08-19T09:18:22;9.87;;;5.13;;
10557;SDS011;5327;47.238;-2.304;2022-08-19T09:20:48;6.70;;;3.27;;
10557;SDS011;5327;47.238;-2.304;2022-08-19T09:23:14;8.00;;;3.67;;
10557;SDS011;5327;47.238;-2.304;2022-08-19T09:25:41;7.47;;;4.10;;
10557;SDS011;5327;47.238;-2.304;2022-08-19T09:28:07;10.20;;;3.93;;
10557;SDS011;5327;47.238;-2.304;2022-08-19T09:30:34;8.07;;;4.00;;
10557;SDS011;5327;47.238;-2.304;2022-08-19T09:33:04;12.77;;;3.80;;
10557;SDS011;5327;47.238;-2.304;2022-08-19T09:35:31;12.30;;;3.87;;
10557;SDS011;5327;47.238;-2.304;2022-08-19T09:37:57;11.50;;;4.17;;
10557;SDS011;5327;47.238;-2.304;2022-08-19T09:40:24;7.47;;;3.87;;
10557;SDS011;5327;47.238;-2.304;2022-08-19T09:42:50;9.40;;;3.00;;
10557;SDS011;5327;47.238;-2.304;2022-08-19T09:45:18;7.30;;;3.10;;
10557;SDS011;5327;47.238;-2.304;2022-08-19T09:47:46;8.83;;;3.73;;
10557;SDS011;5327;47.238;-2.304;2022-08-19T09:50:12;9.40;;;3.90;;
10557;SDS011;5327;47.238;-2.304;2022-08-19T09:52:38;7.37;;;3.53;;
10557;SDS011;5327;47.238;-2.304;2022-08-19T09:55:07;6.70;;;2.60;;
10557;SDS011;5327;47.238;-2.304;2022-08-19T09:57:34;8.70;;;3.20;;
10557;SDS011;5327;47.238;-2.304;2022-08-19T10:00:00;5.63;;;2.77;;
10557;SDS011;5327;47.238;-2.304;2022-08-19T10:02:27;8.73;;;3.80;;
10557;SDS011;5327;47.238;-2.304;2022-08-19T10:04:53;10.57;;;3.73;;
10557;SDS011;5327;47.238;-2.304;2022-08-19T10:07:37;7.23;;;4.20;;
10557;SDS011;5327;47.238;-2.304;2022-08-19T10:10:04;12.77;;;4.10;;
10557;SDS011;5327;47.238;-2.304;2022-08-19T10:12:31;5.80;;;3.30;;
10557;SDS011;5327;47.238;-2.304;2022-08-19T10:14:58;10.17;;;3.47;;
10557;SDS011;5327;47.238;-2.304;2022-08-19T10:17:24;7.97;;;3.20;;
10557;SDS011;5327;47.238;-2.304;2022-08-19T10:19:50;8.87;;;3.97;;
10557;SDS011;5327;47.238;-2.304;2022-08-19T10:22:17;6.40;;;3.17;;
10557;SDS011;5327;47.238;-2.304;2022-08-19T10:24:43;6.43;;;3.30;;
10557;SDS011;5327;47.238;-2.304;2022-08-19T10:27:09;7.30;;;3.10;;
10557;SDS011;5327;47.238;-2.304;2022-08-19T10:29:35;11.00;;;3.57;;
10557;SDS011;5327;47.238;-2.304;2022-08-19T10:32:02;11.93;;;3.83;;
10557;SDS011;5327;47.238;-2.304;2022-08-19T10:34:30;8.93;;;3.53;;
10557;SDS011;5327;47.238;-2.304;2022-08-19T10:36:57;8.10;;;3.87;;
10557;SDS011;5327;47.238;-2.304;2022-08-19T10:39:23;8.33;;;3.60;;
10557;SDS011;5327;47.238;-2.304;2022-08-19T10:41:49;8.60;;;4.03;;
10557;SDS011;5327;47.238;-2.304;2022-08-19T10:44:15;13.10;;;3.63;;
10557;SDS011;5327;47.238;-2.304;2022-08-19T10:46:43;5.93;;;3.23;;
10557;SDS011;5327;47.238;-2.304;2022-08-19T10:49:11;6.30;;;2.87;;
10557;SDS011;5327;47.238;-2.304;2022-08-19T10:51:38;6.43;;;3.20;;
10557;SDS011;5327;47.238;-2.304;2022-08-19T10:54:23;6.53;;;3.33;;
10557;SDS011;5327;47.238;-2.304;2022-08-19T10:57:09;10.20;;;4.40;;
10557;SDS011;5327;47.238;-2.304;2022-08-19T10:59:35;9.30;;;3.70;;
10557;SDS011;5327;47.238;-2.304;2022-08-19T11:02:03;5.37;;;3.13;;
10557;SDS011;5327;47.238;-2.304;2022-08-19T11:04:30;6.63;;;3.30;;
10557;SDS011;5327;47.238;-2.304;2022-08-19T11:06:56;7.23;;;3.60;;
10557;SDS011;5327;47.238;-2.304;2022-08-19T11:09:23;8.20;;;3.60;;
10557;SDS011;5327;47.238;-2.304;2022-08-19T11:11:50;12.10;;;3.87;;
10557;SDS011;5327;47.238;-2.304;2022-08-19T11:14:18;7.20;;;3.57;;
10557;SDS011;5327;47.238;-2.304;2022-08-19T11:16:45;6.43;;;3.30;;
10557;SDS011;5327;47.238;-2.304;2022-08-19T11:19:11;11.20;;;3.63;;
10557;SDS011;5327;47.238;-2.304;2022-08-19T11:21:40;7.70;;;3.53;;
10557;SDS011;5327;47.238;-2.304;2022-08-19T11:24:08;8.57;;;4.03;;
10557;SDS011;5327;47.238;-2.304;2022-08-19T11:26:34;7.30;;;3.60;;
10557;SDS011;5327;47.238;-2.304;2022-08-19T11:29:00;10.07;;;3.53;;
10557;SDS011;5327;47.238;-2.304;2022-08-19T11:31:28;8.20;;;3.40;;
10557;SDS011;5327;47.238;-2.304;2022-08-19T11:34:00;6.80;;;3.93;;
10557;SDS011;5327;47.238;-2.304;2022-08-19T11:36:26;8.20;;;3.70;;
10557;SDS011;5327;47.238;-2.304;2022-08-19T11:38:53;8.77;;;3.17;;
10557;SDS011;5327;47.238;-2.304;2022-08-19T11:41:20;7.73;;;3.40;;
10557;SDS011;5327;47.238;-2.304;2022-08-19T11:43:47;5.40;;;3.00;;
10557;SDS011;5327;47.238;-2.304;2022-08-19T11:46:14;7.93;;;3.07;;
10557;SDS011;5327;47.238;-2.304;2022-08-19T11:48:40;8.73;;;3.07;;
10557;SDS011;5327;47.238;-2.304;2022-08-19T11:51:11;8.73;;;3.70;;
10557;SDS011;5327;47.238;-2.304;2022-08-19T11:53:38;5.70;;;3.53;;
10557;SDS011;5327;47.238;-2.304;2022-08-19T11:56:04;11.23;;;3.53;;
10557;SDS011;5327;47.238;-2.304;2022-08-19T11:58:31;11.47;;;3.20;;
10557;SDS011;5327;47.238;-2.304;2022-08-19T12:00:58;6.40;;;3.27;;
10557;SDS011;5327;47.238;-2.304;2022-08-19T12:03:24;6.43;;;3.20;;
10557;SDS011;5327;47.238;-2.304;2022-08-19T12:05:51;9.77;;;3.47;;
10557;SDS011;5327;47.238;-2.304;2022-08-19T12:08:17;6.97;;;3.30;;
10557;SDS011;5327;47.238;-2.304;2022-08-19T12:10:44;9.17;;;3.00;;
10557;SDS011;5327;47.238;-2.304;2022-08-19T12:13:10;10.47;;;2.77;;
10557;SDS011;5327;47.238;-2.304;2022-08-19T12:15:39;6.77;;;3.50;;
10557;SDS011;5327;47.238;-2.304;2022-08-19T12:18:06;13.40;;;3.67;;
10557;SDS011;5327;47.238;-2.304;2022-08-19T12:20:36;6.80;;;3.83;;
10557;SDS011;5327;47.238;-2.304;2022-08-19T12:23:03;5.90;;;3.20;;
10557;SDS011;5327;47.238;-2.304;2022-08-19T12:25:29;11.50;;;3.80;;
10557;SDS011;5327;47.238;-2.304;2022-08-19T12:27:57;9.53;;;3.43;;
10557;SDS011;5327;47.238;-2.304;2022-08-19T12:30:23;7.10;;;2.93;;
10557;SDS011;5327;47.238;-2.304;2022-08-19T12:32:49;6.10;;;3.50;;
10557;SDS011;5327;47.238;-2.304;2022-08-19T12:35:16;6.10;;;3.30;;
10557;SDS011;5327;47.238;-2.304;2022-08-19T12:37:45;7.57;;;2.90;;
10557;SDS011;5327;47.238;-2.304;2022-08-19T12:40:11;10.40;;;3.50;;
10557;SDS011;5327;47.238;-2.304;2022-08-19T12:42:38;6.73;;;3.00;;
10557;SDS011;5327;47.238;-2.304;2022-08-19T12:45:08;8.40;;;3.60;;
10557;SDS011;5327;47.238;-2.304;2022-08-19T12:47:35;6.83;;;3.13;;
10557;SDS011;5327;47.238;-2.304;2022-08-19T12:50:01;8.00;;;2.90;;
10557;SDS011;5327;47.238;-2.304;2022-08-19T12:52:27;11.27;;;3.10;;
10557;SDS011;5327;47.238;-2.304;2022-08-19T12:54:53;5.47;;;3.20;;
10557;SDS011;5327;47.238;-2.304;2022-08-19T12:57:20;9.50;;;3.50;;
10557;SDS011;5327;47.238;-2.304;2022-08-19T12:59:47;8.70;;;3.10;;
10557;SDS011;5327;47.238;-2.304;2022-08-19T13:02:13;5.53;;;2.63;;
10557;SDS011;5327;47.238;-2.304;2022-08-19T13:04:39;5.57;;;2.70;;
10557;SDS011;5327;47.238;-2.304;2022-08-19T13:07:06;5.37;;;2.70;;
10557;SDS011;5327;47.238;-2.304;2022-08-19T13:09:34;6.47;;;3.60;;
10557;SDS011;5327;47.238;-2.304;2022-08-19T13:12:00;5.30;;;2.73;;
10557;SDS011;5327;47.238;-2.304;2022-08-19T13:14:28;5.40;;;2.60;;
10557;SDS011;5327;47.238;-2.304;2022-08-19T13:16:56;8.80;;;2.87;;
10557;SDS011;5327;47.238;-2.304;2022-08-19T13:19:22;7.07;;;3.10;;
10557;SDS011;5327;47.238;-2.304;2022-08-19T13:21:49;11.50;;;3.60;;
10557;SDS011;5327;47.238;-2.304;2022-08-19T13:24:16;8.43;;;2.97;;
10557;SDS011;5327;47.238;-2.304;2022-08-19T13:26:43;11.70;;;3.50;;
10557;SDS011;5327;47.238;-2.304;2022-08-19T13:29:09;9.63;;;3.30;;
10557;SDS011;5327;47.238;-2.304;2022-08-19T13:31:54;10.03;;;4.13;;
10557;SDS011;5327;47.238;-2.304;2022-08-19T13:34:38;8.23;;;3.30;;
10557;SDS011;5327;47.238;-2.304;2022-08-19T13:37:05;9.60;;;3.27;;
10557;SDS011;5327;47.238;-2.304;2022-08-19T13:39:31;8.60;;;3.00;;
10557;SDS011;5327;47.238;-2.304;2022-08-19T13:41:58;9.33;;;2.80;;
10557;SDS011;5327;47.238;-2.304;2022-08-19T13:44:25;9.73;;;3.00;;
10557;SDS011;5327;47.238;-2.304;2022-08-19T13:46:51;8.70;;;3.20;;
10557;SDS011;5327;47.238;-2.304;2022-08-19T13:49:18;9.93;;;3.73;;
10557;SDS011;5327;47.238;-2.304;2022-08-19T13:51:45;10.87;;;3.53;;
10557;SDS011;5327;47.238;-2.304;2022-08-19T13:54:11;8.30;;;2.93;;
10557;SDS011;5327;47.238;-2.304;2022-08-19T13:56:41;7.00;;;3.40;;
10557;SDS011;5327;47.238;-2.304;2022-08-19T13:59:08;7.57;;;3.30;;
10557;SDS011;5327;47.238;-2.304;2022-08-19T14:01:34;15.10;;;3.97;;
10557;SDS011;5327;47.238;-2.304;2022-08-19T14:04:01;11.83;;;3.93;;
10557;SDS011;5327;47.238;-2.304;2022-08-19T14:06:27;8.57;;;4.20;;
10557;SDS011;5327;47.238;-2.304;2022-08-19T14:08:53;13.90;;;3.30;;
10557;SDS011;5327;47.238;-2.304;2022-08-19T14:11:19;10.47;;;3.67;;
10557;SDS011;5327;47.238;-2.304;2022-08-19T14:13:45;8.93;;;4.20;;
10557;SDS011;5327;47.238;-2.304;2022-08-19T14:16:12;15.77;;;3.33;;
10557;SDS011;5327;47.238;-2.304;2022-08-19T14:18:38;10.57;;;3.40;;
10557;SDS011;5327;47.238;-2.304;2022-08-19T14:21:05;15.20;;;4.53;;
10557;SDS011;5327;47.238;-2.304;2022-08-19T14:23:31;8.67;;;4.03;;
10557;SDS011;5327;47.238;-2.304;2022-08-19T14:26:08;11.90;;;3.00;;
10557;SDS011;5327;47.238;-2.304;2022-08-19T14:28:35;10.43;;;3.03;;
10557;SDS011;5327;47.238;-2.304;2022-08-19T14:31:01;12.57;;;4.47;;
10557;SDS011;5327;47.238;-2.304;2022-08-19T14:33:27;6.57;;;3.10;;
10557;SDS011;5327;47.238;-2.304;2022-08-19T14:35:53;9.07;;;3.57;;
10557;SDS011;5327;47.238;-2.304;2022-08-19T14:38:19;10.90;;;3.17;;
10557;SDS011;5327;47.238;-2.304;2022-08-19T14:40:45;8.90;;;3.00;;
10557;SDS011;5327;47.238;-2.304;2022-08-19T14:43:11;9.00;;;3.23;;
10557;SDS011;5327;47.238;-2.304;2022-08-19T14:45:38;6.00;;;2.63;;
10557;SDS011;5327;47.238;-2.304;2022-08-19T14:48:05;12.43;;;4.50;;
10557;SDS011;5327;47.238;-2.304;2022-08-19T14:50:32;11.63;;;2.80;;
10557;SDS011;5327;47.238;-2.304;2022-08-19T14:53:08;8.93;;;3.20;;